createdAt,value
2022-12-08T00:01:58.180Z,16.35
2022-12-08T00:04:24.703Z,15.87
2022-12-08T00:06:51.788Z,16.04
2022-12-08T00:09:18.233Z,15.48
2022-12-08T00:11:45.840Z,15.47
2022-12-08T00:14:12.539Z,15.66
2022-12-08T00:16:38.964Z,15.50
2022-12-08T00:19:07.484Z,15.85
2022-12-08T00:21:33.820Z,15.25
2022-12-08T00:24:01.119Z,15.17
2022-12-08T00:26:27.595Z,15.04
2022-12-08T00:28:54.048Z,15.03
2022-12-08T00:31:20.492Z,14.54
2022-12-08T00:33:46.962Z,14.92
2022-12-08T00:36:13.341Z,14.80
2022-12-08T00:38:40.033Z,14.86
2022-12-08T00:41:07.456Z,14.68
2022-12-08T00:43:34.107Z,14.01
2022-12-08T00:46:00.820Z,14.04
2022-12-08T00:48:27.209Z,14.13
2022-12-08T00:50:53.659Z,14.00
2022-12-08T00:53:22.570Z,13.77
2022-12-08T00:55:49.237Z,13.57
2022-12-08T00:58:15.642Z,13.73
2022-12-08T01:00:42.411Z,13.78
2022-12-08T01:03:09.055Z,13.71
2022-12-08T01:05:35.474Z,13.84
2022-12-08T01:08:01.949Z,13.93
2022-12-08T01:10:28.487Z,13.58
2022-12-08T01:12:55.437Z,14.25
2022-12-08T01:15:21.828Z,14.46
2022-12-08T01:17:54.444Z,14.12
2022-12-08T01:20:21.170Z,13.67
2022-12-08T01:22:47.557Z,13.94
2022-12-08T01:25:14.278Z,13.82
2022-12-08T01:27:40.751Z,13.94
2022-12-08T01:30:07.829Z,14.62
2022-12-08T01:32:34.174Z,15.16
2022-12-08T01:35:00.715Z,14.92
2022-12-08T01:37:28.197Z,15.16
2022-12-08T01:39:55.474Z,14.94
2022-12-08T01:42:22.118Z,14.97
2022-12-08T01:44:48.507Z,14.20
2022-12-08T01:47:15.204Z,15.12
2022-12-08T01:49:41.765Z,14.31
2022-12-08T01:52:08.128Z,14.40
2022-12-08T01:54:37.004Z,14.03
2022-12-08T01:57:03.677Z,14.19
2022-12-08T01:59:30.144Z,13.96
2022-12-08T02:01:56.608Z,14.10
2022-12-08T02:04:23.374Z,14.15
2022-12-08T02:06:50.037Z,13.85
2022-12-08T02:09:16.727Z,13.58
2022-12-08T02:11:44.375Z,13.50
2022-12-08T02:14:10.751Z,13.59
2022-12-08T02:16:38.167Z,13.86
2022-12-08T02:19:30.356Z,14.08
2022-12-08T02:21:52.958Z,14.55
2022-12-08T02:24:19.293Z,14.49
2022-12-08T02:26:45.756Z,14.06
2022-12-08T02:29:12.094Z,13.96
2022-12-08T02:31:38.426Z,13.70
2022-12-08T02:34:05.843Z,14.05
2022-12-08T02:36:33.218Z,13.41
2022-12-08T02:38:59.750Z,13.73
2022-12-08T02:41:28.246Z,12.97
2022-12-08T02:43:54.738Z,13.79
2022-12-08T02:46:21.353Z,13.27
2022-12-08T02:48:48.057Z,13.11
2022-12-08T02:51:16.599Z,13.26
2022-12-08T02:53:43.135Z,12.70
2022-12-08T02:56:09.615Z,13.32
2022-12-08T02:58:35.997Z,12.54
2022-12-08T03:01:02.410Z,13.22
2022-12-08T03:03:30.132Z,13.56
2022-12-08T03:05:56.571Z,13.02
2022-12-08T03:08:23.116Z,12.78
2022-12-08T03:10:51.857Z,12.67
2022-12-08T03:13:18.782Z,13.20
2022-12-08T03:15:46.356Z,12.96
2022-12-08T03:18:12.803Z,13.05
2022-12-08T03:20:39.141Z,12.82
2022-12-08T03:23:05.693Z,12.79
2022-12-08T03:25:32.193Z,12.83
2022-12-08T03:27:59.611Z,12.60
2022-12-08T03:30:26.075Z,13.09
2022-12-08T03:32:52.811Z,13.50
2022-12-08T03:35:19.314Z,13.25
2022-12-08T03:37:45.913Z,13.68
2022-12-08T03:40:12.308Z,13.22
2022-12-08T03:42:38.715Z,13.22
2022-12-08T03:45:05.103Z,13.13
2022-12-08T03:47:33.984Z,13.13
2022-12-08T03:50:01.396Z,13.16
2022-12-08T03:52:28.202Z,13.34
2022-12-08T03:54:54.578Z,12.69
2022-12-08T03:57:20.957Z,12.62
2022-12-08T04:02:27.604Z,12.34
2022-12-08T04:04:53.986Z,12.33
2022-12-08T04:07:20.401Z,12.30
2022-12-08T04:09:46.817Z,12.27
2022-12-08T04:12:15.210Z,12.56
2022-12-08T04:14:41.543Z,13.52
2022-12-08T04:17:08.098Z,13.64
2022-12-08T04:19:34.501Z,14.15
2022-12-08T04:22:00.901Z,14.47
2022-12-08T04:24:27.300Z,13.79
2022-12-08T04:26:54.713Z,14.33
2022-12-08T04:29:21.213Z,14.48
2022-12-08T04:31:47.643Z,14.10
2022-12-08T04:34:14.095Z,14.00
2022-12-08T04:36:40.473Z,13.65
2022-12-08T04:39:06.869Z,13.21
2022-12-08T04:41:33.508Z,13.26
2022-12-08T04:43:59.900Z,12.62
2022-12-08T04:46:26.304Z,12.67
2022-12-08T04:48:53.721Z,13.29
2022-12-08T04:51:20.438Z,13.59
2022-12-08T04:53:47.208Z,13.04
2022-12-08T04:56:13.654Z,13.03
2022-12-08T04:58:41.127Z,12.77
2022-12-08T05:01:07.489Z,12.70
2022-12-08T05:03:34.139Z,13.04
2022-12-08T05:06:03.050Z,13.43
2022-12-08T05:08:29.690Z,13.56
2022-12-08T05:10:56.642Z,13.69
2022-12-08T05:13:23.025Z,13.07
2022-12-08T05:15:49.471Z,12.56
2022-12-08T05:18:17.392Z,12.55
2022-12-08T05:20:43.942Z,12.33
2022-12-08T05:23:10.649Z,12.77
2022-12-08T05:25:39.282Z,11.99
2022-12-08T05:28:32.838Z,12.75
2022-12-08T05:30:52.557Z,12.93
2022-12-08T05:33:18.937Z,13.07
2022-12-08T05:35:47.856Z,13.42
2022-12-08T05:38:14.225Z,12.42
2022-12-08T05:40:42.181Z,12.54
2022-12-08T05:43:08.619Z,12.26
2022-12-08T05:45:35.140Z,12.98
2022-12-08T05:48:02.726Z,12.96
2022-12-08T05:50:29.095Z,13.11
2022-12-08T05:52:56.232Z,13.27
2022-12-08T05:55:22.613Z,13.17
2022-12-08T05:57:48.995Z,13.32
2022-12-08T06:00:15.491Z,12.81
2022-12-08T06:02:43.238Z,13.01
2022-12-08T06:05:10.100Z,13.06
2022-12-08T06:07:37.912Z,13.13
2022-12-08T06:10:04.584Z,13.33
2022-12-08T06:12:31.361Z,13.06
2022-12-08T06:14:57.751Z,13.03
2022-12-08T06:17:24.387Z,12.75
2022-12-08T06:19:52.437Z,12.31
2022-12-08T06:22:18.881Z,13.83
2022-12-08T06:24:45.264Z,12.61
2022-12-08T06:27:11.636Z,12.42
2022-12-08T06:29:37.970Z,13.25
2022-12-08T06:32:04.424Z,13.48
2022-12-08T06:34:30.859Z,13.47
2022-12-08T06:36:57.351Z,13.12
2022-12-08T06:39:23.736Z,13.12
2022-12-08T06:41:51.251Z,13.82
2022-12-08T06:44:18.556Z,13.24
2022-12-08T06:46:45.174Z,13.24
2022-12-08T06:49:11.545Z,13.33
2022-12-08T06:51:37.920Z,13.49
2022-12-08T06:54:04.719Z,13.92
2022-12-08T06:56:31.259Z,13.26
2022-12-08T06:58:57.706Z,13.79
2022-12-08T07:01:24.175Z,13.36
2022-12-08T07:03:50.601Z,13.65
2022-12-08T07:06:17.037Z,13.87
2022-12-08T07:08:43.413Z,13.86
2022-12-08T07:11:10.021Z,14.14
2022-12-08T07:13:36.367Z,14.29
2022-12-08T07:16:02.704Z,14.12
2022-12-08T07:18:29.103Z,14.56
2022-12-08T07:20:56.426Z,14.76
2022-12-08T07:23:22.870Z,15.19
2022-12-08T07:25:49.254Z,14.39
2022-12-08T07:28:15.714Z,14.81
2022-12-08T07:30:42.571Z,14.77
2022-12-08T07:33:09.340Z,15.29
2022-12-08T07:35:35.718Z,15.73
2022-12-08T07:38:02.166Z,15.10
2022-12-08T07:40:28.530Z,14.47
2022-12-08T07:42:55.097Z,15.07
2022-12-08T07:45:29.872Z,15.70
2022-12-08T07:47:58.322Z,14.83
2022-12-08T07:50:25.888Z,15.07
2022-12-08T07:52:52.333Z,14.68
2022-12-08T07:55:19.001Z,15.25
2022-12-08T07:57:45.409Z,15.43
2022-12-08T08:00:11.796Z,15.77
2022-12-08T08:02:38.647Z,14.50
2022-12-08T08:05:05.336Z,14.00
2022-12-08T08:07:34.575Z,14.29
2022-12-08T08:10:01.066Z,14.58
2022-12-08T08:12:32.077Z,15.11
2022-12-08T08:14:59.267Z,14.91
2022-12-08T08:17:25.923Z,14.91
2022-12-08T08:19:52.538Z,15.52
2022-12-08T08:22:18.918Z,15.44
2022-12-08T08:24:45.660Z,16.15
2022-12-08T08:27:12.358Z,15.88
2022-12-08T08:29:39.741Z,15.94
2022-12-08T08:32:06.320Z,16.05
2022-12-08T08:34:32.817Z,16.18
2022-12-08T08:36:59.377Z,16.30
2022-12-08T08:39:25.808Z,16.02
2022-12-08T08:41:52.433Z,16.62
2022-12-08T08:44:19.365Z,16.48
2022-12-08T08:46:46.369Z,16.16
2022-12-08T08:49:12.898Z,16.07
2022-12-08T08:51:41.434Z,15.93
2022-12-08T08:54:07.905Z,15.84
2022-12-08T08:56:34.592Z,15.86
2022-12-08T08:59:01.067Z,16.33
2022-12-08T09:01:27.539Z,16.13
2022-12-08T09:03:53.959Z,16.65
2022-12-08T09:06:20.416Z,16.30
2022-12-08T09:08:47.553Z,16.72
2022-12-08T09:11:15.214Z,17.07
2022-12-08T09:13:41.552Z,17.15
2022-12-08T09:16:08.335Z,17.22
2022-12-08T09:18:34.795Z,16.75
2022-12-08T09:21:01.602Z,15.43
2022-12-08T09:23:35.074Z,15.70
2022-12-08T09:26:02.348Z,16.60
2022-12-08T09:28:28.765Z,16.31
2022-12-08T09:30:57.085Z,16.16
2022-12-08T09:33:23.707Z,16.57
2022-12-08T09:35:50.111Z,16.40
2022-12-08T09:38:16.491Z,16.97
2022-12-08T09:40:42.841Z,17.90
2022-12-08T09:43:09.395Z,17.75
2022-12-08T09:45:35.894Z,17.33
2022-12-08T09:48:02.894Z,17.80
2022-12-08T09:50:29.302Z,18.07
2022-12-08T09:52:55.742Z,17.95
2022-12-08T09:55:22.437Z,18.70
2022-12-08T09:57:53.059Z,18.09
2022-12-08T10:00:22.708Z,18.09
2022-12-08T10:02:49.337Z,17.68
2022-12-08T10:05:16.514Z,16.99
2022-12-08T10:07:43.203Z,17.65
2022-12-08T10:10:12.760Z,18.62
2022-12-08T10:12:39.512Z,18.60
2022-12-08T10:15:06.967Z,19.50
2022-12-08T10:17:33.340Z,19.13
2022-12-08T10:20:00.305Z,18.42
2022-12-08T10:22:26.687Z,19.11
2022-12-08T10:24:53.390Z,20.40
2022-12-08T10:27:22.637Z,19.40
2022-12-08T10:29:49.137Z,19.88
2022-12-08T10:32:16.631Z,20.57
2022-12-08T10:34:43.434Z,20.59
2022-12-08T10:37:10.304Z,20.18
2022-12-08T10:39:36.791Z,20.05
2022-12-08T10:42:03.345Z,20.08
2022-12-08T10:44:29.791Z,20.40
2022-12-08T10:46:56.592Z,20.35
2022-12-08T10:49:23.247Z,20.18
2022-12-08T10:51:49.942Z,19.65
2022-12-08T10:54:20.559Z,18.93
2022-12-08T10:56:48.465Z,19.67
2022-12-08T10:59:15.327Z,18.81
2022-12-08T11:01:41.953Z,19.23
2022-12-08T11:04:08.462Z,19.68
2022-12-08T11:06:37.203Z,19.50
2022-12-08T11:09:04.067Z,19.58
2022-12-08T11:11:30.569Z,19.37
2022-12-08T11:13:56.953Z,20.07
2022-12-08T11:16:23.561Z,19.31
2022-12-08T11:18:50.362Z,19.69
2022-12-08T11:21:16.841Z,20.00
2022-12-08T11:23:43.483Z,20.39
2022-12-08T11:26:09.909Z,20.49
2022-12-08T11:28:36.354Z,20.11
2022-12-08T11:31:03.367Z,19.74
2022-12-08T11:33:30.196Z,19.47
2022-12-08T11:35:59.153Z,19.45
2022-12-08T11:38:25.594Z,19.49
2022-12-08T11:40:52.120Z,19.40
2022-12-08T11:43:18.863Z,19.52
2022-12-08T11:45:45.355Z,19.62
2022-12-08T11:48:12.197Z,19.70
2022-12-08T11:50:39.406Z,19.40
2022-12-08T11:53:05.847Z,19.29
2022-12-08T11:55:37.331Z,19.66
2022-12-08T11:58:05.906Z,19.02
2022-12-08T12:00:32.490Z,19.39
2022-12-08T12:02:58.921Z,19.86
2022-12-08T12:05:39.822Z,19.56
2022-12-08T12:08:11.734Z,19.21
2022-12-08T12:10:38.353Z,19.74
2022-12-08T12:13:04.696Z,19.56
2022-12-08T12:15:32.255Z,19.56
2022-12-08T12:17:58.703Z,19.70
2022-12-08T12:20:25.339Z,19.24
2022-12-08T12:22:51.773Z,19.73
2022-12-08T12:25:18.240Z,19.22
2022-12-08T12:27:44.941Z,19.47
2022-12-08T12:30:11.521Z,19.34
2022-12-08T12:32:37.902Z,19.48
2022-12-08T12:35:04.896Z,19.44
2022-12-08T12:37:33.483Z,20.26
2022-12-08T12:40:02.144Z,20.17
2022-12-08T12:42:28.611Z,19.93
2022-12-08T12:44:56.086Z,20.02
2022-12-08T12:47:22.479Z,20.00
2022-12-08T12:49:49.166Z,20.34
2022-12-08T12:52:15.543Z,19.63
2022-12-08T12:54:41.955Z,20.15
2022-12-08T12:57:08.738Z,19.96
2022-12-08T12:59:35.124Z,19.70
2022-12-08T13:02:01.554Z,19.94
2022-12-08T13:04:28.075Z,20.07
2022-12-08T13:06:54.480Z,19.34
2022-12-08T13:09:23.424Z,20.77
2022-12-08T13:11:49.797Z,19.66
2022-12-08T13:14:23.485Z,20.31
2022-12-08T13:16:50.728Z,19.85
2022-12-08T13:19:17.117Z,19.38
2022-12-08T13:21:43.456Z,19.46
2022-12-08T13:24:10.294Z,19.93
2022-12-08T13:26:36.653Z,19.83
2022-12-08T13:29:03.130Z,19.11
2022-12-08T13:31:30.449Z,19.11
2022-12-08T13:33:57.018Z,19.05
2022-12-08T13:36:23.466Z,19.32
2022-12-08T13:38:49.838Z,19.55
2022-12-08T13:41:16.610Z,19.18
2022-12-08T13:43:55.499Z,18.58
2022-12-08T13:55:49.520Z,19.59
2022-12-08T13:57:35.103Z,19.26
2022-12-08T14:00:01.745Z,18.79
2022-12-08T14:02:31.335Z,19.24
2022-12-08T14:07:44.206Z,18.86
2022-12-08T14:10:10.838Z,19.10
2022-12-08T14:12:38.228Z,20.93
2022-12-08T14:15:05.004Z,20.65
2022-12-08T14:17:31.580Z,18.46
2022-12-08T14:19:58.165Z,18.96
2022-12-08T14:22:24.849Z,18.55
2022-12-08T14:24:51.525Z,18.30
2022-12-08T14:27:18.308Z,18.56
2022-12-08T14:29:44.815Z,19.16
2022-12-08T14:32:11.502Z,18.95
2022-12-08T14:34:38.022Z,18.44
2022-12-08T14:37:04.825Z,18.90
2022-12-08T14:39:32.225Z,18.67
2022-12-08T14:41:58.592Z,18.71
2022-12-08T14:44:28.098Z,18.73
2022-12-08T14:46:54.762Z,18.63
2022-12-08T14:49:21.208Z,18.82
2022-12-08T14:51:47.738Z,18.54
2022-12-08T14:54:14.227Z,18.97
2022-12-08T14:56:43.142Z,18.85
2022-12-08T14:59:09.610Z,19.24
2022-12-08T15:01:36.408Z,20.25
2022-12-08T15:04:02.888Z,20.43
2022-12-08T15:06:29.317Z,20.08
2022-12-08T15:08:55.724Z,20.66
2022-12-08T15:11:22.181Z,21.91
2022-12-08T15:13:48.802Z,21.37
2022-12-08T15:16:15.228Z,21.21
2022-12-08T15:18:41.603Z,21.02
2022-12-08T15:21:07.983Z,21.23
2022-12-08T15:23:34.890Z,20.84
2022-12-08T15:26:01.694Z,19.96
2022-12-08T15:28:29.960Z,20.48
2022-12-08T15:30:57.118Z,20.34
2022-12-08T15:33:23.592Z,20.66
2022-12-08T15:35:50.194Z,20.03
2022-12-08T15:38:16.734Z,21.08
2022-12-08T15:40:43.105Z,20.96
2022-12-08T15:43:09.529Z,20.95
2022-12-08T15:45:36.063Z,20.99
2022-12-08T15:48:02.482Z,21.41
2022-12-08T15:50:28.970Z,21.52
2022-12-08T15:52:55.356Z,21.72
2022-12-08T15:55:21.857Z,21.10
2022-12-08T16:00:52.839Z,22.86
2022-12-08T16:03:59.409Z,23.25
2022-12-08T16:09:06.266Z,23.23
2022-12-08T16:12:05.383Z,23.09
2022-12-08T16:15:30.328Z,24.48
2022-12-08T16:17:11.436Z,24.45
2022-12-08T16:19:37.858Z,24.05
2022-12-08T16:22:51.337Z,23.01
2022-12-08T16:24:50.658Z,22.96
2022-12-08T16:30:03.512Z,24.27
2022-12-08T16:32:29.939Z,24.26
2022-12-08T16:34:56.621Z,24.21
2022-12-08T16:37:23.265Z,26.40
2022-12-08T16:39:49.691Z,60.12
2022-12-08T16:42:16.129Z,100.90
2022-12-08T16:44:42.893Z,82.06
2022-12-08T16:47:09.237Z,188.03
2022-12-08T16:49:35.633Z,140.53
2022-12-08T16:52:02.121Z,69.07
2022-12-08T16:54:28.490Z,31.81
2022-12-08T16:56:55.043Z,27.20
2022-12-08T16:59:23.497Z,28.47
2022-12-08T17:01:49.837Z,26.54
2022-12-08T17:04:31.319Z,25.55
2022-12-08T17:06:57.990Z,26.01
2022-12-08T17:09:24.383Z,26.12
2022-12-08T17:11:50.937Z,26.21
2022-12-08T17:14:17.259Z,25.06
2022-12-08T17:16:43.694Z,25.00
2022-12-08T17:19:10.082Z,24.11
2022-12-08T17:21:36.414Z,25.08
2022-12-08T17:24:02.817Z,24.30
2022-12-08T17:26:29.347Z,24.91
2022-12-08T17:29:02.743Z,25.67
2022-12-08T17:31:30.524Z,28.59
2022-12-08T17:33:58.367Z,29.24
2022-12-08T17:36:24.752Z,27.64
2022-12-08T17:38:51.303Z,27.11
2022-12-08T17:41:17.704Z,27.55
2022-12-08T17:43:46.435Z,28.14
2022-12-08T17:46:13.223Z,27.37
2022-12-08T17:48:40.469Z,26.93
2022-12-08T17:51:06.814Z,26.20
2022-12-08T17:53:37.369Z,25.77
2022-12-08T17:56:04.073Z,26.59
2022-12-08T17:58:30.440Z,25.55
2022-12-08T18:00:59.127Z,25.71
2022-12-08T18:03:25.488Z,26.79
2022-12-08T18:05:51.946Z,25.32
2022-12-08T18:08:18.368Z,25.16
2022-12-08T18:10:44.858Z,24.98
2022-12-08T18:13:11.432Z,26.01
2022-12-08T18:15:39.438Z,25.48
2022-12-08T18:18:05.897Z,24.03
2022-12-08T18:20:32.327Z,23.41
2022-12-08T18:22:58.695Z,23.72
2022-12-08T18:25:25.713Z,23.96
2022-12-08T18:27:52.086Z,24.15
2022-12-08T18:30:18.657Z,23.12
2022-12-08T18:32:45.276Z,22.41
2022-12-08T18:35:11.772Z,22.42
2022-12-08T18:37:39.381Z,22.21
2022-12-08T18:40:06.103Z,23.08
2022-12-08T18:42:32.753Z,21.98
2022-12-08T18:44:59.323Z,22.00
2022-12-08T18:47:25.928Z,23.00
2022-12-08T18:49:52.367Z,23.05
2022-12-08T18:52:25.953Z,22.85
2022-12-08T18:55:06.227Z,23.05
2022-12-08T18:57:33.459Z,23.07
2022-12-08T19:00:00.436Z,23.61
2022-12-08T19:02:26.872Z,23.62
2022-12-08T19:04:55.856Z,22.17
2022-12-08T19:07:22.236Z,22.26
2022-12-08T19:09:49.566Z,22.65
2022-12-08T19:12:16.075Z,22.26
2022-12-08T19:14:42.764Z,21.68
2022-12-08T19:17:09.574Z,22.66
2022-12-08T19:19:36.130Z,22.50
2022-12-08T19:22:02.526Z,22.23
2022-12-08T19:24:29.129Z,22.54
2022-12-08T19:26:55.602Z,22.38
2022-12-08T19:29:21.986Z,22.77
2022-12-08T19:31:48.596Z,22.96
2022-12-08T19:34:15.360Z,22.81
2022-12-08T19:36:41.760Z,22.72
2022-12-08T19:39:08.451Z,22.70
2022-12-08T19:41:35.024Z,23.03
2022-12-08T19:44:02.505Z,23.34
2022-12-08T19:46:29.041Z,23.05
2022-12-08T19:48:55.554Z,22.76
2022-12-08T19:51:21.918Z,23.18
2022-12-08T19:53:48.303Z,22.71
2022-12-08T19:56:14.745Z,22.95
2022-12-08T19:58:41.095Z,23.46
2022-12-08T20:01:07.712Z,22.92
2022-12-08T20:03:34.628Z,22.75
2022-12-08T20:06:01.382Z,23.29
2022-12-08T20:08:27.936Z,23.66
2022-12-08T20:10:54.540Z,23.52
2022-12-08T20:13:21.048Z,24.53
2022-12-08T20:15:47.709Z,24.88
2022-12-08T20:18:14.167Z,25.34
2022-12-08T20:20:40.639Z,25.86
2022-12-08T20:23:08.594Z,25.04
2022-12-08T20:25:34.997Z,25.11
2022-12-08T20:28:01.477Z,25.22
2022-12-08T20:30:27.877Z,29.63
2022-12-08T20:32:54.236Z,43.71
2022-12-08T20:35:20.863Z,34.08
2022-12-08T20:37:47.270Z,29.67
2022-12-08T20:40:13.951Z,28.19
2022-12-08T20:42:40.334Z,27.21
2022-12-08T20:45:07.976Z,27.66
2022-12-08T20:47:36.741Z,27.23
2022-12-08T20:50:03.626Z,27.08
2022-12-08T20:52:30.435Z,27.54
2022-12-08T20:54:56.818Z,27.44
2022-12-08T20:57:23.592Z,27.86
2022-12-08T20:59:53.134Z,27.98
2022-12-08T21:02:21.130Z,27.33
2022-12-08T21:04:47.685Z,27.13
2022-12-08T21:07:15.295Z,27.55
2022-12-08T21:12:23.704Z,28.13
2022-12-08T21:14:50.251Z,29.12
2022-12-08T21:17:16.934Z,29.68
2022-12-08T21:19:44.825Z,29.14
2022-12-08T21:22:11.397Z,29.16
2022-12-08T21:24:39.861Z,28.91
2022-12-08T21:27:06.394Z,28.73
2022-12-08T21:29:33.353Z,28.74
2022-12-08T21:32:00.090Z,27.75
2022-12-08T21:34:27.853Z,28.11
2022-12-08T21:36:54.431Z,29.65
2022-12-08T21:39:21.072Z,27.88
2022-12-08T21:41:47.473Z,26.43
2022-12-08T21:44:14.081Z,26.95
2022-12-08T21:46:41.066Z,26.75
2022-12-08T21:49:07.532Z,28.40
2022-12-08T21:51:34.497Z,28.68
2022-12-08T21:54:01.122Z,28.67
2022-12-08T21:56:27.861Z,28.89
2022-12-08T21:58:54.374Z,29.44
2022-12-08T22:01:21.019Z,29.82
2022-12-08T22:03:48.849Z,29.86
2022-12-08T22:06:15.505Z,29.74
2022-12-08T22:08:42.249Z,29.85
2022-12-08T22:11:09.083Z,28.03
2022-12-08T22:13:35.686Z,28.42
2022-12-08T22:16:02.262Z,28.61
2022-12-08T22:18:30.348Z,28.42
2022-12-08T22:20:56.869Z,28.27
2022-12-08T22:23:23.641Z,28.67
2022-12-08T22:25:50.281Z,28.41
2022-12-08T22:28:16.691Z,28.40
2022-12-08T22:30:43.183Z,29.74
2022-12-08T22:33:09.959Z,29.74
2022-12-08T22:35:36.701Z,29.25
2022-12-08T22:38:03.344Z,27.70
2022-12-08T22:40:29.758Z,27.82
2022-12-08T22:42:56.238Z,26.97
2022-12-08T22:45:22.759Z,26.25
2022-12-08T22:47:49.670Z,27.63
2022-12-08T22:50:16.115Z,28.26
2022-12-08T22:52:42.660Z,29.23
2022-12-08T22:55:09.373Z,30.50
2022-12-08T22:57:35.989Z,30.14
2022-12-08T23:00:02.743Z,29.17
2022-12-08T23:02:29.326Z,28.97
2022-12-08T23:04:55.978Z,29.24
2022-12-08T23:07:23.363Z,28.78
2022-12-08T23:09:49.809Z,28.70
2022-12-08T23:12:16.213Z,28.60
2022-12-08T23:14:42.790Z,28.95
2022-12-08T23:17:09.313Z,28.55
2022-12-08T23:19:35.858Z,27.94
2022-12-08T23:22:02.450Z,27.90
2022-12-08T23:24:28.806Z,27.76
2022-12-08T23:26:55.819Z,28.82
2022-12-08T23:29:24.747Z,28.76
2022-12-08T23:31:51.228Z,28.01
2022-12-08T23:34:17.938Z,28.82
2022-12-08T23:36:44.444Z,28.13
2022-12-08T23:39:10.893Z,28.01
2022-12-08T23:41:37.467Z,28.53
2022-12-08T23:44:03.911Z,28.43
2022-12-08T23:46:30.925Z,28.77
2022-12-08T23:48:57.584Z,30.31
2022-12-08T23:51:24.114Z,31.74
2022-12-08T23:53:50.467Z,30.15
2022-12-08T23:56:16.876Z,28.85
2022-12-08T23:58:43.647Z,30.13
